sensor_id;sensor_type;location;lat;lon;timestamp;temperature;humidity
702;DHT22;334;48.808;9.222;2023-03-14T00:00:56;12.50;49.20
702;DHT22;334;48.808;9.222;2023-03-14T00:01:58;12.50;49.10
702;DHT22;334;48.808;9.222;2023-03-14T00:03:00;12.50;49.40
702;DHT22;334;48.808;9.222;2023-03-14T00:04:04;12.50;48.00
702;DHT22;334;48.808;9.222;2023-03-14T00:05:07;12.50;49.80
702;DHT22;334;48.808;9.222;2023-03-14T00:06:10;12.50;50.60
702;DHT22;334;48.808;9.222;2023-03-14T00:07:12;12.50;47.50
702;DHT22;334;48.808;9.222;2023-03-14T00:08:14;12.50;49.80
702;DHT22;334;48.808;9.222;2023-03-14T00:09:17;12.50;49.90
702;DHT22;334;48.808;9.222;2023-03-14T00:10:19;12.50;51.30
702;DHT22;334;48.808;9.222;2023-03-14T00:11:21;12.50;50.20
702;DHT22;334;48.808;9.222;2023-03-14T00:12:23;12.50;49.20
702;DHT22;334;48.808;9.222;2023-03-14T00:13:25;12.50;47.40
702;DHT22;334;48.808;9.222;2023-03-14T00:14:27;12.40;48.70
702;DHT22;334;48.808;9.222;2023-03-14T00:15:28;12.40;49.50
702;DHT22;334;48.808;9.222;2023-03-14T00:16:30;12.40;46.70
702;DHT22;334;48.808;9.222;2023-03-14T00:17:33;12.40;44.50
702;DHT22;334;48.808;9.222;2023-03-14T00:18:39;12.50;47.50
702;DHT22;334;48.808;9.222;2023-03-14T00:19:41;12.40;46.70
702;DHT22;334;48.808;9.222;2023-03-14T00:20:43;12.40;49.40
702;DHT22;334;48.808;9.222;2023-03-14T00:21:44;12.40;49.20
702;DHT22;334;48.808;9.222;2023-03-14T00:22:46;12.40;50.20
702;DHT22;334;48.808;9.222;2023-03-14T00:23:48;12.40;50.20
702;DHT22;334;48.808;9.222;2023-03-14T00:24:50;12.40;50.80
702;DHT22;334;48.808;9.222;2023-03-14T00:25:52;12.40;42.50
702;DHT22;334;48.808;9.222;2023-03-14T00:26:56;12.40;48.40
702;DHT22;334;48.808;9.222;2023-03-14T00:27:58;12.40;50.90
702;DHT22;334;48.808;9.222;2023-03-14T00:29:00;12.40;48.30
702;DHT22;334;48.808;9.222;2023-03-14T00:30:02;12.40;47.20
702;DHT22;334;48.808;9.222;2023-03-14T00:31:09;12.40;45.80
702;DHT22;334;48.808;9.222;2023-03-14T00:32:12;12.40;46.70
702;DHT22;334;48.808;9.222;2023-03-14T00:33:14;12.40;48.40
702;DHT22;334;48.808;9.222;2023-03-14T00:34:16;12.40;48.80
702;DHT22;334;48.808;9.222;2023-03-14T00:35:18;12.40;48.00
702;DHT22;334;48.808;9.222;2023-03-14T00:36:21;12.40;47.90
702;DHT22;334;48.808;9.222;2023-03-14T00:37:22;12.40;48.60
702;DHT22;334;48.808;9.222;2023-03-14T00:38:25;12.40;49.20
702;DHT22;334;48.808;9.222;2023-03-14T00:39:27;12.40;46.10
702;DHT22;334;48.808;9.222;2023-03-14T00:40:28;12.50;50.30
702;DHT22;334;48.808;9.222;2023-03-14T00:41:30;12.50;51.10
702;DHT22;334;48.808;9.222;2023-03-14T00:42:32;12.50;52.10
702;DHT22;334;48.808;9.222;2023-03-14T00:43:35;12.50;50.80
702;DHT22;334;48.808;9.222;2023-03-14T00:44:37;12.60;51.20
702;DHT22;334;48.808;9.222;2023-03-14T00:45:38;12.60;52.40
702;DHT22;334;48.808;9.222;2023-03-14T00:46:40;12.60;53.40
702;DHT22;334;48.808;9.222;2023-03-14T00:47:42;12.70;52.30
702;DHT22;334;48.808;9.222;2023-03-14T00:48:47;12.70;52.80
702;DHT22;334;48.808;9.222;2023-03-14T00:49:49;12.70;52.20
702;DHT22;334;48.808;9.222;2023-03-14T00:50:51;12.70;51.20
702;DHT22;334;48.808;9.222;2023-03-14T00:51:53;12.70;50.10
702;DHT22;334;48.808;9.222;2023-03-14T00:52:55;12.70;50.30
702;DHT22;334;48.808;9.222;2023-03-14T00:53:57;12.80;52.10
702;DHT22;334;48.808;9.222;2023-03-14T00:54:59;12.80;50.00
702;DHT22;334;48.808;9.222;2023-03-14T00:56:03;12.80;51.70
702;DHT22;334;48.808;9.222;2023-03-14T00:57:05;12.80;49.40
702;DHT22;334;48.808;9.222;2023-03-14T00:58:08;12.80;49.80
702;DHT22;334;48.808;9.222;2023-03-14T00:59:10;12.80;49.70
702;DHT22;334;48.808;9.222;2023-03-14T01:00:12;12.80;50.60
702;DHT22;334;48.808;9.222;2023-03-14T01:01:17;12.80;47.70
702;DHT22;334;48.808;9.222;2023-03-14T01:02:19;12.80;47.10
702;DHT22;334;48.808;9.222;2023-03-14T01:03:21;12.80;48.80
702;DHT22;334;48.808;9.222;2023-03-14T01:04:23;12.80;49.20
702;DHT22;334;48.808;9.222;2023-03-14T01:05:25;12.80;45.70
702;DHT22;334;48.808;9.222;2023-03-14T01:06:28;12.80;48.30
702;DHT22;334;48.808;9.222;2023-03-14T01:07:30;12.80;48.60
702;DHT22;334;48.808;9.222;2023-03-14T01:08:31;12.80;49.10
702;DHT22;334;48.808;9.222;2023-03-14T01:09:35;12.80;50.00
702;DHT22;334;48.808;9.222;2023-03-14T01:10:39;12.80;49.70
702;DHT22;334;48.808;9.222;2023-03-14T01:11:41;12.80;48.00
702;DHT22;334;48.808;9.222;2023-03-14T01:12:44;12.80;47.00
702;DHT22;334;48.808;9.222;2023-03-14T01:13:46;12.80;46.50
702;DHT22;334;48.808;9.222;2023-03-14T01:14:48;12.90;49.50
702;DHT22;334;48.808;9.222;2023-03-14T01:15:53;12.80;45.90
702;DHT22;334;48.808;9.222;2023-03-14T01:16:55;12.80;47.90
702;DHT22;334;48.808;9.222;2023-03-14T01:18:03;12.80;47.80
702;DHT22;334;48.808;9.222;2023-03-14T01:19:04;12.80;49.20
702;DHT22;334;48.808;9.222;2023-03-14T01:20:10;12.80;42.20
702;DHT22;334;48.808;9.222;2023-03-14T01:21:24;12.70;40.80
702;DHT22;334;48.808;9.222;2023-03-14T01:22:27;12.80;46.30
702;DHT22;334;48.808;9.222;2023-03-14T01:23:29;12.80;47.00
702;DHT22;334;48.808;9.222;2023-03-14T01:24:30;12.80;47.90
702;DHT22;334;48.808;9.222;2023-03-14T01:25:32;12.80;46.50
702;DHT22;334;48.808;9.222;2023-03-14T01:26:35;12.70;47.50
702;DHT22;334;48.808;9.222;2023-03-14T01:27:37;12.80;49.20
702;DHT22;334;48.808;9.222;2023-03-14T01:28:39;12.80;50.20
702;DHT22;334;48.808;9.222;2023-03-14T01:29:41;12.80;50.10
702;DHT22;334;48.808;9.222;2023-03-14T01:30:43;12.80;49.50
702;DHT22;334;48.808;9.222;2023-03-14T01:31:45;12.80;47.50
702;DHT22;334;48.808;9.222;2023-03-14T01:32:47;12.80;45.10
702;DHT22;334;48.808;9.222;2023-03-14T01:33:50;12.70;46.40
702;DHT22;334;48.808;9.222;2023-03-14T01:34:53;12.80;47.90
702;DHT22;334;48.808;9.222;2023-03-14T01:35:55;12.80;49.90
702;DHT22;334;48.808;9.222;2023-03-14T01:36:57;12.80;50.40
702;DHT22;334;48.808;9.222;2023-03-14T01:37:58;12.70;46.90
702;DHT22;334;48.808;9.222;2023-03-14T01:39:00;12.80;46.40
702;DHT22;334;48.808;9.222;2023-03-14T01:40:02;12.70;47.10
702;DHT22;334;48.808;9.222;2023-03-14T01:41:06;12.80;48.20
702;DHT22;334;48.808;9.222;2023-03-14T01:42:09;12.80;48.40
702;DHT22;334;48.808;9.222;2023-03-14T01:43:18;12.70;45.20
702;DHT22;334;48.808;9.222;2023-03-14T01:44:20;12.70;44.40
702;DHT22;334;48.808;9.222;2023-03-14T01:47:01;12.70;45.80
702;DHT22;334;48.808;9.222;2023-03-14T01:48:03;12.70;46.60
702;DHT22;334;48.808;9.222;2023-03-14T01:50:16;12.70;46.90
702;DHT22;334;48.808;9.222;2023-03-14T01:51:30;12.70;47.60
702;DHT22;334;48.808;9.222;2023-03-14T01:52:36;12.70;46.90
702;DHT22;334;48.808;9.222;2023-03-14T01:53:44;12.70;45.60
702;DHT22;334;48.808;9.222;2023-03-14T01:54:49;12.70;46.90
702;DHT22;334;48.808;9.222;2023-03-14T01:55:52;12.70;47.20
702;DHT22;334;48.808;9.222;2023-03-14T01:57:45;12.70;46.60
702;DHT22;334;48.808;9.222;2023-03-14T01:58:29;12.70;43.20
702;DHT22;334;48.808;9.222;2023-03-14T01:59:32;12.70;43.70
702;DHT22;334;48.808;9.222;2023-03-14T02:00:35;12.60;46.00
702;DHT22;334;48.808;9.222;2023-03-14T02:01:40;12.60;47.10
702;DHT22;334;48.808;9.222;2023-03-14T02:02:52;12.60;41.00
702;DHT22;334;48.808;9.222;2023-03-14T02:03:57;12.60;42.10
702;DHT22;334;48.808;9.222;2023-03-14T02:05:00;12.60;41.80
702;DHT22;334;48.808;9.222;2023-03-14T02:06:05;12.50;43.20
702;DHT22;334;48.808;9.222;2023-03-14T02:07:20;12.60;41.60
702;DHT22;334;48.808;9.222;2023-03-14T02:08:24;12.50;41.20
702;DHT22;334;48.808;9.222;2023-03-14T02:09:26;12.50;38.70
702;DHT22;334;48.808;9.222;2023-03-14T02:10:41;12.50;42.40
702;DHT22;334;48.808;9.222;2023-03-14T02:11:43;12.50;38.80
702;DHT22;334;48.808;9.222;2023-03-14T02:12:47;12.50;39.00
702;DHT22;334;48.808;9.222;2023-03-14T02:13:49;12.50;44.80
702;DHT22;334;48.808;9.222;2023-03-14T02:14:51;12.60;46.70
702;DHT22;334;48.808;9.222;2023-03-14T02:15:53;12.60;43.40
702;DHT22;334;48.808;9.222;2023-03-14T02:16:55;12.50;43.20
702;DHT22;334;48.808;9.222;2023-03-14T02:17:58;12.60;47.00
702;DHT22;334;48.808;9.222;2023-03-14T02:19:02;12.60;45.70
702;DHT22;334;48.808;9.222;2023-03-14T02:21:34;12.50;35.30
702;DHT22;334;48.808;9.222;2023-03-14T02:22:42;12.60;44.40
702;DHT22;334;48.808;9.222;2023-03-14T02:23:58;12.60;45.90
702;DHT22;334;48.808;9.222;2023-03-14T02:26:22;12.50;41.60
702;DHT22;334;48.808;9.222;2023-03-14T02:27:25;12.50;36.10
702;DHT22;334;48.808;9.222;2023-03-14T02:28:27;12.40;40.10
702;DHT22;334;48.808;9.222;2023-03-14T02:29:31;12.40;40.00
702;DHT22;334;48.808;9.222;2023-03-14T02:30:34;12.40;39.50
702;DHT22;334;48.808;9.222;2023-03-14T02:31:37;12.40;41.50
702;DHT22;334;48.808;9.222;2023-03-14T02:32:41;12.40;42.20
702;DHT22;334;48.808;9.222;2023-03-14T02:33:44;12.30;38.10
702;DHT22;334;48.808;9.222;2023-03-14T02:34:49;12.40;44.30
702;DHT22;334;48.808;9.222;2023-03-14T02:35:59;12.40;44.70
702;DHT22;334;48.808;9.222;2023-03-14T02:37:03;12.40;41.90
702;DHT22;334;48.808;9.222;2023-03-14T02:38:31;12.40;39.10
702;DHT22;334;48.808;9.222;2023-03-14T02:39:38;12.30;40.30
702;DHT22;334;48.808;9.222;2023-03-14T02:40:40;12.30;44.10
702;DHT22;334;48.808;9.222;2023-03-14T02:41:42;12.30;42.50
702;DHT22;334;48.808;9.222;2023-03-14T02:42:46;12.30;40.20
702;DHT22;334;48.808;9.222;2023-03-14T02:43:48;12.30;43.90
702;DHT22;334;48.808;9.222;2023-03-14T02:44:57;12.30;45.10
702;DHT22;334;48.808;9.222;2023-03-14T02:46:02;12.30;40.30
702;DHT22;334;48.808;9.222;2023-03-14T02:47:05;12.30;41.70
702;DHT22;334;48.808;9.222;2023-03-14T02:48:13;12.30;40.60
702;DHT22;334;48.808;9.222;2023-03-14T02:49:16;12.20;41.20
702;DHT22;334;48.808;9.222;2023-03-14T02:50:25;12.30;45.00
702;DHT22;334;48.808;9.222;2023-03-14T02:51:28;12.20;38.20
702;DHT22;334;48.808;9.222;2023-03-14T02:52:30;12.30;44.30
702;DHT22;334;48.808;9.222;2023-03-14T02:53:34;12.30;43.00
702;DHT22;334;48.808;9.222;2023-03-14T02:54:36;12.30;40.80
702;DHT22;334;48.808;9.222;2023-03-14T02:55:38;12.30;45.00
702;DHT22;334;48.808;9.222;2023-03-14T02:56:40;12.30;42.10
702;DHT22;334;48.808;9.222;2023-03-14T02:57:42;12.30;43.30
702;DHT22;334;48.808;9.222;2023-03-14T02:58:44;12.30;42.60
702;DHT22;334;48.808;9.222;2023-03-14T02:59:46;12.30;45.30
702;DHT22;334;48.808;9.222;2023-03-14T03:00:48;12.30;46.50
702;DHT22;334;48.808;9.222;2023-03-14T03:01:50;12.30;41.90
702;DHT22;334;48.808;9.222;2023-03-14T03:02:52;12.30;43.40
702;DHT22;334;48.808;9.222;2023-03-14T03:03:54;12.30;41.90
702;DHT22;334;48.808;9.222;2023-03-14T03:04:56;12.30;39.70
702;DHT22;334;48.808;9.222;2023-03-14T03:05:58;12.30;43.40
702;DHT22;334;48.808;9.222;2023-03-14T03:07:00;12.30;42.10
702;DHT22;334;48.808;9.222;2023-03-14T03:08:03;12.30;43.10
702;DHT22;334;48.808;9.222;2023-03-14T03:09:05;12.30;45.20
702;DHT22;334;48.808;9.222;2023-03-14T03:10:07;12.40;46.70
702;DHT22;334;48.808;9.222;2023-03-14T03:11:09;12.40;44.20
702;DHT22;334;48.808;9.222;2023-03-14T03:12:11;12.40;46.70
702;DHT22;334;48.808;9.222;2023-03-14T03:13:13;12.40;46.70
702;DHT22;334;48.808;9.222;2023-03-14T03:14:15;12.50;47.50
702;DHT22;334;48.808;9.222;2023-03-14T03:15:17;12.50;48.10
702;DHT22;334;48.808;9.222;2023-03-14T03:16:19;12.50;46.70
702;DHT22;334;48.808;9.222;2023-03-14T03:17:21;12.50;48.20
702;DHT22;334;48.808;9.222;2023-03-14T03:18:23;12.60;46.80
702;DHT22;334;48.808;9.222;2023-03-14T03:19:25;12.60;46.60
702;DHT22;334;48.808;9.222;2023-03-14T03:20:27;12.60;41.50
702;DHT22;334;48.808;9.222;2023-03-14T03:21:28;12.50;37.20
702;DHT22;334;48.808;9.222;2023-03-14T03:22:30;12.50;38.20
702;DHT22;334;48.808;9.222;2023-03-14T03:23:32;12.50;43.00
702;DHT22;334;48.808;9.222;2023-03-14T03:24:34;12.50;40.60
702;DHT22;334;48.808;9.222;2023-03-14T03:25:36;12.50;40.60
702;DHT22;334;48.808;9.222;2023-03-14T03:26:39;12.40;37.80
702;DHT22;334;48.808;9.222;2023-03-14T03:27:41;12.40;40.70
702;DHT22;334;48.808;9.222;2023-03-14T03:28:42;12.40;43.70
702;DHT22;334;48.808;9.222;2023-03-14T03:29:44;12.50;46.80
702;DHT22;334;48.808;9.222;2023-03-14T03:30:46;12.50;47.60
702;DHT22;334;48.808;9.222;2023-03-14T03:31:48;12.50;46.70
702;DHT22;334;48.808;9.222;2023-03-14T03:32:50;12.50;46.00
702;DHT22;334;48.808;9.222;2023-03-14T03:33:52;12.50;47.50
702;DHT22;334;48.808;9.222;2023-03-14T03:34:54;12.60;49.10
702;DHT22;334;48.808;9.222;2023-03-14T03:35:55;12.60;48.50
702;DHT22;334;48.808;9.222;2023-03-14T03:36:58;12.70;45.10
702;DHT22;334;48.808;9.222;2023-03-14T03:38:00;12.70;46.50
702;DHT22;334;48.808;9.222;2023-03-14T03:39:02;12.70;45.80
702;DHT22;334;48.808;9.222;2023-03-14T03:40:05;12.70;47.00
702;DHT22;334;48.808;9.222;2023-03-14T03:41:08;12.70;39.00
702;DHT22;334;48.808;9.222;2023-03-14T03:42:10;12.60;36.80
702;DHT22;334;48.808;9.222;2023-03-14T03:43:14;12.60;39.70
702;DHT22;334;48.808;9.222;2023-03-14T03:44:16;12.60;40.40
702;DHT22;334;48.808;9.222;2023-03-14T03:45:18;12.60;43.40
702;DHT22;334;48.808;9.222;2023-03-14T03:46:19;12.60;41.40
702;DHT22;334;48.808;9.222;2023-03-14T03:47:22;12.60;39.20
702;DHT22;334;48.808;9.222;2023-03-14T03:48:23;12.60;40.40
702;DHT22;334;48.808;9.222;2023-03-14T03:49:29;12.60;44.60
702;DHT22;334;48.808;9.222;2023-03-14T03:50:31;12.60;39.40
702;DHT22;334;48.808;9.222;2023-03-14T03:51:33;12.60;42.40
702;DHT22;334;48.808;9.222;2023-03-14T03:52:35;12.60;42.20
702;DHT22;334;48.808;9.222;2023-03-14T03:53:37;12.50;28.30
702;DHT22;334;48.808;9.222;2023-03-14T03:54:38;12.50;39.90
702;DHT22;334;48.808;9.222;2023-03-14T03:55:41;12.40;32.80
702;DHT22;334;48.808;9.222;2023-03-14T03:56:44;12.40;36.40
702;DHT22;334;48.808;9.222;2023-03-14T03:57:45;12.40;34.80
702;DHT22;334;48.808;9.222;2023-03-14T03:58:47;12.40;36.90
702;DHT22;334;48.808;9.222;2023-03-14T03:59:51;12.40;35.70
702;DHT22;334;48.808;9.222;2023-03-14T04:00:52;12.40;40.70
702;DHT22;334;48.808;9.222;2023-03-14T04:01:55;12.50;42.30
702;DHT22;334;48.808;9.222;2023-03-14T04:02:57;12.50;45.00
702;DHT22;334;48.808;9.222;2023-03-14T04:03:59;12.50;33.90
702;DHT22;334;48.808;9.222;2023-03-14T04:05:02;12.50;42.40
702;DHT22;334;48.808;9.222;2023-03-14T04:06:08;12.50;43.00
702;DHT22;334;48.808;9.222;2023-03-14T04:07:11;12.50;39.60
702;DHT22;334;48.808;9.222;2023-03-14T04:08:15;12.50;42.40
702;DHT22;334;48.808;9.222;2023-03-14T04:09:17;12.50;41.20
702;DHT22;334;48.808;9.222;2023-03-14T04:10:19;12.50;35.30
702;DHT22;334;48.808;9.222;2023-03-14T04:11:20;12.40;28.00
702;DHT22;334;48.808;9.222;2023-03-14T04:12:22;12.40;34.50
702;DHT22;334;48.808;9.222;2023-03-14T04:13:25;12.40;37.70
702;DHT22;334;48.808;9.222;2023-03-14T04:14:27;12.40;31.50
702;DHT22;334;48.808;9.222;2023-03-14T04:15:29;12.30;36.60
702;DHT22;334;48.808;9.222;2023-03-14T04:16:31;12.30;30.80
702;DHT22;334;48.808;9.222;2023-03-14T04:17:33;12.30;34.10
702;DHT22;334;48.808;9.222;2023-03-14T04:18:34;12.30;37.90
702;DHT22;334;48.808;9.222;2023-03-14T04:19:36;12.20;29.40
702;DHT22;334;48.808;9.222;2023-03-14T04:20:38;12.20;36.70
702;DHT22;334;48.808;9.222;2023-03-14T04:21:40;12.20;37.40
702;DHT22;334;48.808;9.222;2023-03-14T04:22:46;12.30;35.30
702;DHT22;334;48.808;9.222;2023-03-14T04:23:48;12.20;31.10
702;DHT22;334;48.808;9.222;2023-03-14T04:24:49;12.30;40.60
702;DHT22;334;48.808;9.222;2023-03-14T04:25:52;12.20;31.60
702;DHT22;334;48.808;9.222;2023-03-14T04:26:54;12.30;39.30
702;DHT22;334;48.808;9.222;2023-03-14T04:27:56;12.30;38.50
702;DHT22;334;48.808;9.222;2023-03-14T04:28:57;12.30;41.10
702;DHT22;334;48.808;9.222;2023-03-14T04:29:59;12.40;43.00
702;DHT22;334;48.808;9.222;2023-03-14T04:31:07;12.30;42.00
702;DHT22;334;48.808;9.222;2023-03-14T04:32:10;12.40;39.80
702;DHT22;334;48.808;9.222;2023-03-14T04:33:11;12.40;35.70
702;DHT22;334;48.808;9.222;2023-03-14T04:34:16;12.40;37.90
702;DHT22;334;48.808;9.222;2023-03-14T04:35:18;12.40;40.70
702;DHT22;334;48.808;9.222;2023-03-14T04:36:20;12.40;42.20
702;DHT22;334;48.808;9.222;2023-03-14T04:37:22;12.40;38.00
702;DHT22;334;48.808;9.222;2023-03-14T04:38:23;12.40;34.00
702;DHT22;334;48.808;9.222;2023-03-14T04:39:25;12.40;38.70
702;DHT22;334;48.808;9.222;2023-03-14T04:40:27;12.40;40.20
702;DHT22;334;48.808;9.222;2023-03-14T04:41:30;12.40;32.10
702;DHT22;334;48.808;9.222;2023-03-14T04:42:32;12.30;33.80
702;DHT22;334;48.808;9.222;2023-03-14T04:43:34;12.30;33.10
702;DHT22;334;48.808;9.222;2023-03-14T04:44:36;12.30;39.50
702;DHT22;334;48.808;9.222;2023-03-14T04:45:42;12.30;28.30
702;DHT22;334;48.808;9.222;2023-03-14T04:46:44;12.30;33.90
702;DHT22;334;48.808;9.222;2023-03-14T04:47:45;12.30;36.10
702;DHT22;334;48.808;9.222;2023-03-14T04:48:47;12.20;34.00
702;DHT22;334;48.808;9.222;2023-03-14T04:49:49;12.20;34.70
702;DHT22;334;48.808;9.222;2023-03-14T04:50:51;12.20;33.80
702;DHT22;334;48.808;9.222;2023-03-14T04:51:53;12.20;36.40
702;DHT22;334;48.808;9.222;2023-03-14T04:52:55;12.20;40.00
702;DHT22;334;48.808;9.222;2023-03-14T04:53:57;12.30;41.40
702;DHT22;334;48.808;9.222;2023-03-14T04:54:59;12.20;32.90
702;DHT22;334;48.808;9.222;2023-03-14T04:56:01;12.20;37.60
702;DHT22;334;48.808;9.222;2023-03-14T04:57:03;12.20;37.80
702;DHT22;334;48.808;9.222;2023-03-14T04:58:05;12.20;33.20
702;DHT22;334;48.808;9.222;2023-03-14T04:59:07;12.20;38.20
702;DHT22;334;48.808;9.222;2023-03-14T05:00:11;12.20;38.30
702;DHT22;334;48.808;9.222;2023-03-14T05:01:13;12.20;39.30
702;DHT22;334;48.808;9.222;2023-03-14T05:02:15;12.30;43.30
702;DHT22;334;48.808;9.222;2023-03-14T05:03:18;12.30;37.70
702;DHT22;334;48.808;9.222;2023-03-14T05:04:20;12.30;38.40
702;DHT22;334;48.808;9.222;2023-03-14T05:05:23;12.30;38.80
702;DHT22;334;48.808;9.222;2023-03-14T05:06:24;12.30;40.30
702;DHT22;334;48.808;9.222;2023-03-14T05:07:26;12.30;42.10
702;DHT22;334;48.808;9.222;2023-03-14T05:08:28;12.30;38.20
702;DHT22;334;48.808;9.222;2023-03-14T05:09:30;12.30;40.20
702;DHT22;334;48.808;9.222;2023-03-14T05:10:31;12.30;31.30
702;DHT22;334;48.808;9.222;2023-03-14T05:11:33;12.30;35.50
702;DHT22;334;48.808;9.222;2023-03-14T05:12:38;12.30;39.80
702;DHT22;334;48.808;9.222;2023-03-14T05:13:40;12.30;32.20
702;DHT22;334;48.808;9.222;2023-03-14T05:14:41;12.30;37.70
702;DHT22;334;48.808;9.222;2023-03-14T05:15:49;12.30;36.60
702;DHT22;334;48.808;9.222;2023-03-14T05:16:52;12.10;40.80
702;DHT22;334;48.808;9.222;2023-03-14T05:17:56;12.30;41.00
702;DHT22;334;48.808;9.222;2023-03-14T05:18:57;12.30;42.40
702;DHT22;334;48.808;9.222;2023-03-14T05:19:59;12.30;42.50
702;DHT22;334;48.808;9.222;2023-03-14T05:21:01;12.30;36.40
702;DHT22;334;48.808;9.222;2023-03-14T05:22:03;12.30;33.40
702;DHT22;334;48.808;9.222;2023-03-14T05:23:05;12.30;38.00
702;DHT22;334;48.808;9.222;2023-03-14T05:24:07;12.30;41.70
702;DHT22;334;48.808;9.222;2023-03-14T05:25:09;12.30;42.10
702;DHT22;334;48.808;9.222;2023-03-14T05:26:11;12.40;42.30
702;DHT22;334;48.808;9.222;2023-03-14T05:27:13;12.30;34.40
702;DHT22;334;48.808;9.222;2023-03-14T05:28:15;12.30;39.10
702;DHT22;334;48.808;9.222;2023-03-14T05:29:16;12.30;36.40
702;DHT22;334;48.808;9.222;2023-03-14T05:30:18;12.30;36.00
702;DHT22;334;48.808;9.222;2023-03-14T05:31:21;12.20;37.10
702;DHT22;334;48.808;9.222;2023-03-14T05:32:23;12.20;41.00
702;DHT22;334;48.808;9.222;2023-03-14T05:33:25;12.20;40.40
702;DHT22;334;48.808;9.222;2023-03-14T05:34:27;12.20;37.40
702;DHT22;334;48.808;9.222;2023-03-14T05:35:28;12.20;38.00
702;DHT22;334;48.808;9.222;2023-03-14T05:36:30;12.20;33.60
702;DHT22;334;48.808;9.222;2023-03-14T05:37:32;12.10;34.80
702;DHT22;334;48.808;9.222;2023-03-14T05:38:34;12.10;39.70
702;DHT22;334;48.808;9.222;2023-03-14T05:39:36;12.10;42.00
702;DHT22;334;48.808;9.222;2023-03-14T05:40:38;12.10;33.70
702;DHT22;334;48.808;9.222;2023-03-14T05:41:39;12.10;38.70
702;DHT22;334;48.808;9.222;2023-03-14T05:42:41;12.10;38.20
702;DHT22;334;48.808;9.222;2023-03-14T05:43:43;12.10;35.60
702;DHT22;334;48.808;9.222;2023-03-14T05:44:44;12.10;37.60
702;DHT22;334;48.808;9.222;2023-03-14T05:45:46;12.10;39.50
702;DHT22;334;48.808;9.222;2023-03-14T05:46:48;12.10;41.70
702;DHT22;334;48.808;9.222;2023-03-14T05:47:51;12.10;41.30
702;DHT22;334;48.808;9.222;2023-03-14T05:48:53;12.10;40.60
702;DHT22;334;48.808;9.222;2023-03-14T05:49:55;12.10;41.30
702;DHT22;334;48.808;9.222;2023-03-14T05:50:57;12.10;41.80
702;DHT22;334;48.808;9.222;2023-03-14T05:52:00;12.10;36.60
702;DHT22;334;48.808;9.222;2023-03-14T05:53:02;12.10;37.50
702;DHT22;334;48.808;9.222;2023-03-14T05:54:04;12.10;40.00
702;DHT22;334;48.808;9.222;2023-03-14T05:55:06;12.10;36.10
702;DHT22;334;48.808;9.222;2023-03-14T05:56:09;12.10;37.50
702;DHT22;334;48.808;9.222;2023-03-14T05:57:11;12.10;40.40
702;DHT22;334;48.808;9.222;2023-03-14T05:58:12;12.10;42.00
702;DHT22;334;48.808;9.222;2023-03-14T05:59:14;12.10;41.20
702;DHT22;334;48.808;9.222;2023-03-14T06:00:16;12.10;40.90
702;DHT22;334;48.808;9.222;2023-03-14T06:01:18;12.10;37.50
702;DHT22;334;48.808;9.222;2023-03-14T06:02:20;12.20;38.50
702;DHT22;334;48.808;9.222;2023-03-14T06:03:22;12.20;41.90
702;DHT22;334;48.808;9.222;2023-03-14T06:04:24;12.20;38.10
702;DHT22;334;48.808;9.222;2023-03-14T06:05:26;12.20;41.70
702;DHT22;334;48.808;9.222;2023-03-14T06:06:28;12.30;44.30
702;DHT22;334;48.808;9.222;2023-03-14T06:07:30;12.30;38.50
702;DHT22;334;48.808;9.222;2023-03-14T06:08:32;12.30;41.50
702;DHT22;334;48.808;9.222;2023-03-14T06:09:34;12.30;43.30
702;DHT22;334;48.808;9.222;2023-03-14T06:10:36;12.40;42.90
702;DHT22;334;48.808;9.222;2023-03-14T06:11:38;12.30;40.80
702;DHT22;334;48.808;9.222;2023-03-14T06:12:40;12.40;42.30
702;DHT22;334;48.808;9.222;2023-03-14T06:13:42;12.40;43.90
702;DHT22;334;48.808;9.222;2023-03-14T06:14:44;12.40;42.70
702;DHT22;334;48.808;9.222;2023-03-14T06:15:46;12.40;43.60
702;DHT22;334;48.808;9.222;2023-03-14T06:16:48;12.40;40.70
702;DHT22;334;48.808;9.222;2023-03-14T06:17:50;12.40;41.50
702;DHT22;334;48.808;9.222;2023-03-14T06:18:52;12.50;43.30
702;DHT22;334;48.808;9.222;2023-03-14T06:19:54;12.50;44.40
702;DHT22;334;48.808;9.222;2023-03-14T06:20:56;12.50;44.20
702;DHT22;334;48.808;9.222;2023-03-14T06:21:58;12.50;43.40
702;DHT22;334;48.808;9.222;2023-03-14T06:22:59;12.60;43.50
702;DHT22;334;48.808;9.222;2023-03-14T06:24:01;12.60;43.90
702;DHT22;334;48.808;9.222;2023-03-14T06:25:03;12.60;39.40
702;DHT22;334;48.808;9.222;2023-03-14T06:26:05;12.60;43.10
702;DHT22;334;48.808;9.222;2023-03-14T06:27:07;12.60;42.40
702;DHT22;334;48.808;9.222;2023-03-14T06:28:09;12.60;43.00
702;DHT22;334;48.808;9.222;2023-03-14T06:29:11;12.60;43.70
702;DHT22;334;48.808;9.222;2023-03-14T06:30:15;12.60;43.30
702;DHT22;334;48.808;9.222;2023-03-14T06:31:17;12.60;42.40
702;DHT22;334;48.808;9.222;2023-03-14T06:32:20;12.70;42.70
702;DHT22;334;48.808;9.222;2023-03-14T06:33:22;12.70;43.10
702;DHT22;334;48.808;9.222;2023-03-14T06:34:23;12.70;38.00
702;DHT22;334;48.808;9.222;2023-03-14T06:35:25;12.70;41.70
702;DHT22;334;48.808;9.222;2023-03-14T06:36:27;12.60;39.00
702;DHT22;334;48.808;9.222;2023-03-14T06:37:29;12.60;31.30
702;DHT22;334;48.808;9.222;2023-03-14T06:38:31;12.50;35.20
702;DHT22;334;48.808;9.222;2023-03-14T06:39:32;12.50;37.80
702;DHT22;334;48.808;9.222;2023-03-14T06:40:34;12.50;39.10
702;DHT22;334;48.808;9.222;2023-03-14T06:41:36;12.50;34.40
702;DHT22;334;48.808;9.222;2023-03-14T06:42:37;12.40;35.70
702;DHT22;334;48.808;9.222;2023-03-14T06:43:39;12.40;37.40
702;DHT22;334;48.808;9.222;2023-03-14T06:44:41;12.40;36.20
702;DHT22;334;48.808;9.222;2023-03-14T06:45:48;12.30;33.70
702;DHT22;334;48.808;9.222;2023-03-14T06:46:59;12.30;35.10
702;DHT22;334;48.808;9.222;2023-03-14T06:48:02;12.30;32.50
702;DHT22;334;48.808;9.222;2023-03-14T06:49:04;12.30;34.70
702;DHT22;334;48.808;9.222;2023-03-14T06:50:07;12.30;39.10
702;DHT22;334;48.808;9.222;2023-03-14T06:51:09;12.30;34.70
702;DHT22;334;48.808;9.222;2023-03-14T06:52:11;12.30;37.80
702;DHT22;334;48.808;9.222;2023-03-14T06:53:12;12.30;37.70
702;DHT22;334;48.808;9.222;2023-03-14T06:54:14;12.30;39.10
702;DHT22;334;48.808;9.222;2023-03-14T06:55:16;12.20;34.90
702;DHT22;334;48.808;9.222;2023-03-14T06:56:22;12.30;35.50
702;DHT22;334;48.808;9.222;2023-03-14T06:57:24;12.20;32.80
702;DHT22;334;48.808;9.222;2023-03-14T06:58:26;12.20;35.10
702;DHT22;334;48.808;9.222;2023-03-14T06:59:28;12.20;33.70
702;DHT22;334;48.808;9.222;2023-03-14T07:00:29;12.20;25.30
702;DHT22;334;48.808;9.222;2023-03-14T07:01:31;12.20;28.40
702;DHT22;334;48.808;9.222;2023-03-14T07:02:39;12.20;36.20
702;DHT22;334;48.808;9.222;2023-03-14T07:03:44;12.20;26.40
702;DHT22;334;48.808;9.222;2023-03-14T07:04:45;12.20;25.80
702;DHT22;334;48.808;9.222;2023-03-14T07:05:47;12.20;30.60
702;DHT22;334;48.808;9.222;2023-03-14T07:06:49;12.20;33.80
702;DHT22;334;48.808;9.222;2023-03-14T07:07:51;12.30;33.00
702;DHT22;334;48.808;9.222;2023-03-14T07:08:52;12.20;24.70
702;DHT22;334;48.808;9.222;2023-03-14T07:09:54;12.20;26.30